Faisalabad Weather



Faisalabad's Current Weather

Temprature 14.37o light rain

light rain

Rain: 100 %

Min Temprature14.37o
Max Temprature14.37o
Humidity72
Wind Speed2.39 m/h
Sun Rise07:03:31
Sun Set17:36:44
Current Time: 27-Jan-2020 18:25:23
Lat/Lon: 31.42, 73.08




Faisalabad's Geo Location



Faisalabad's Weather Forecast

Time Overall Temp Min Temp Max Temp Humidity Wind Speed Rain
27-Jan-2020 (Mon)
20:00:00 light rain 11.960 11.960 11.960 86 2.46 m/h 113 %
23:00:00 overcast clouds 11.870 11.870 11.870 81 2.95 m/h 0 %
28-Jan-2020 (Tue)
02:00:00 overcast clouds 11.580 11.580 11.580 81 2.33 m/h 0 %
05:00:00 light rain 11.780 11.780 11.780 84 4.29 m/h 50 %
08:00:00 moderate rain 11.220 11.220 11.220 91 4.21 m/h 325 %
11:00:00 light rain 11.720 11.720 11.720 89 4.06 m/h 94 %
14:00:00 light rain 14.140 14.140 14.140 79 4.13 m/h 38 %
17:00:00 light rain 12.490 12.490 12.490 83 3.87 m/h 31 %
20:00:00 overcast clouds 10.290 10.290 10.290 92 2.71 m/h 0 %
23:00:00 overcast clouds 9.990 9.990 9.990 94 2.43 m/h 0 %
29-Jan-2020 (Wed)
02:00:00 light rain 10.850 10.850 10.850 94 2.02 m/h 6 %
05:00:00 light rain 10.850 10.850 10.850 95 1.88 m/h 75 %
08:00:00 light rain 11.120 11.120 11.120 93 1.55 m/h 94 %
11:00:00 light rain 14.650 14.650 14.650 73 2.07 m/h 6 %
14:00:00 light rain 16.780 16.780 16.780 59 3.14 m/h 100 %
17:00:00 light rain 16.070 16.070 16.070 53 3.16 m/h 13 %
20:00:00 clear sky 11.760 11.760 11.760 76 2.61 m/h 0 %
23:00:00 clear sky 10.270 10.270 10.270 83 1.36 m/h 0 %
30-Jan-2020 (Thu)
02:00:00 clear sky 9.060 9.060 9.060 76 2.32 m/h 0 %
05:00:00 clear sky 8.270 8.270 8.270 75 2.12 m/h 0 %
08:00:00 clear sky 9.040 9.040 9.040 74 1.62 m/h 0 %
11:00:00 clear sky 15.880 15.880 15.880 51 2.41 m/h 0 %
14:00:00 scattered clouds 18.820 18.820 18.820 39 2.28 m/h 0 %
17:00:00 few clouds 17.030 17.030 17.030 45 1.5 m/h 0 %
20:00:00 clear sky 12.550 12.550 12.550 61 0.06 m/h 0 %
23:00:00 clear sky 11.320 11.320 11.320 60 1.57 m/h 0 %
31-Jan-2020 (Fri)
02:00:00 clear sky 10.230 10.230 10.230 62 1.74 m/h 0 %
05:00:00 clear sky 9.260 9.260 9.260 71 0.73 m/h 0 %
08:00:00 clear sky 10.560 10.560 10.560 68 0.54 m/h 0 %
11:00:00 clear sky 17.140 17.140 17.140 41 1.85 m/h 0 %
14:00:00 overcast clouds 19.250 19.250 19.250 28 2.24 m/h 0 %
17:00:00 broken clouds 17.220 17.220 17.220 34 1.22 m/h 0 %
20:00:00 clear sky 12.670 12.670 12.670 44 1.94 m/h 0 %
23:00:00 clear sky 11.140 11.140 11.140 49 1.23 m/h 0 %
01-Feb-2020 (Sat)
02:00:00 clear sky 10.120 10.120 10.120 51 1.12 m/h 0 %
05:00:00 clear sky 9.420 9.420 9.420 53 1.05 m/h 0 %
08:00:00 clear sky 10.460 10.460 10.460 54 1.04 m/h 0 %
11:00:00 clear sky 17.740 17.740 17.740 36 1.66 m/h 0 %
14:00:00 clear sky 20.370 20.370 20.370 27 1.9 m/h 0 %
17:00:00 clear sky 18.180 18.180 18.180 31 1.67 m/h 0 %


Faisalabad's Tourist Spots

Parks and Zoos in Faisalabad

Famous Cities (61)